Time;durP1;ratioP1;P1;durP2;ratioP2;P2;SDS_P1;SDS_P2;PMS_P1;PMS_P2;Temp;Humidity;BMP_temperature;BMP_pressure;BME280_temperature;BME280_humidity;BME280_pressure;Samples;Min_cycle;Max_cycle;Signal;HPM_P1;HPM_P2
2023/10/02 00:02:06;;;;;;;20.77;8.48;;;;;;;;;;5039824;28;20045;-83
2023/10/02 00:04:34;;;;;;;23.13;9.05;;;;;;;;;;5050693;28;20532;-83
2023/10/02 00:07:06;;;;;;;23.67;9.13;;;;;;;;;;5046428;28;20481;-83
2023/10/02 00:09:35;;;;;;;25.92;9.25;;;;;;;;;;5045294;28;20043;-83
2023/10/02 00:12:11;;;;;;;24.90;9.25;;;;;;;;;;5047579;28;20063;-84
2023/10/02 00:14:38;;;;;;;24.23;8.90;;;;;;;;;;5042904;28;20038;-84
2023/10/02 00:17:06;;;;;;;22.27;8.57;;;;;;;;;;5037078;28;20030;-81
2023/10/02 00:19:37;;;;;;;25.45;9.23;;;;;;;;;;5044050;28;20039;-83
2023/10/02 00:22:08;;;;;;;21.85;8.82;;;;;;;;;;5046812;28;20067;-83
2023/10/02 00:24:41;;;;;;;22.35;8.95;;;;;;;;;;5041864;28;20510;-82
2023/10/02 00:27:09;;;;;;;23.45;8.73;;;;;;;;;;5034247;28;20039;-83
2023/10/02 00:29:51;;;;;;;23.45;8.73;;;;;;;;;;5047910;28;20033;-83
2023/10/02 00:32:19;;;;;;;22.20;8.50;;;;;;;;;;5042823;28;20437;-83
2023/10/02 00:34:50;;;;;;;21.08;8.98;;;;;;;;;;5038010;28;20168;-82
2023/10/02 00:37:16;;;;;;;23.50;8.52;;;;;;;;;;5048078;28;20088;-83
2023/10/02 00:39:47;;;;;;;26.52;9.20;;;;;;;;;;5044645;28;20518;-82
2023/10/02 00:42:24;;;;;;;23.75;9.63;;;;;;;;;;5037673;28;20060;-83
2023/10/02 00:44:57;;;;;;;24.73;9.25;;;;;;;;;;5041727;28;20033;-83
2023/10/02 00:47:50;;;;;;;24.80;9.30;;;;;;;;;;5046187;28;20474;-83
2023/10/02 00:50:18;;;;;;;25.38;9.20;;;;;;;;;;5037265;28;20434;-83
2023/10/02 00:52:48;;;;;;;25.30;9.52;;;;;;;;;;5040390;28;20037;-83
2023/10/02 00:55:20;;;;;;;23.77;9.23;;;;;;;;;;5047482;28;20040;-82
2023/10/02 00:57:49;;;;;;;29.52;9.48;;;;;;;;;;5043552;28;20597;-83
2023/10/02 01:00:22;;;;;;;26.48;10.23;;;;;;;;;;5035881;28;20025;-83
2023/10/02 01:02:57;;;;;;;27.15;10.05;;;;;;;;;;5032111;28;20036;-83
2023/10/02 01:05:28;;;;;;;22.90;9.23;;;;;;;;;;5043260;28;20029;-84
2023/10/02 01:07:54;;;;;;;24.38;9.57;;;;;;;;;;5036340;28;20116;-84
2023/10/02 01:10:23;;;;;;;24.55;9.27;;;;;;;;;;5044043;28;20059;-81
2023/10/02 01:12:49;;;;;;;26.23;10.20;;;;;;;;;;5045055;28;20033;-83
2023/10/02 01:15:26;;;;;;;29.15;10.52;;;;;;;;;;5039091;28;20049;-83
2023/10/02 01:17:52;;;;;;;26.77;9.60;;;;;;;;;;5040540;28;20388;-83
2023/10/02 01:20:32;;;;;;;25.38;9.60;;;;;;;;;;5046760;28;20098;-83
2023/10/02 01:23:12;;;;;;;25.33;9.85;;;;;;;;;;5040483;28;20030;-83
2023/10/02 01:25:40;;;;;;;28.23;9.88;;;;;;;;;;5034894;28;20037;-83
2023/10/02 01:28:09;;;;;;;27.23;10.07;;;;;;;;;;5041708;28;20033;-83
2023/10/02 01:30:35;;;;;;;23.52;9.43;;;;;;;;;;5043260;28;20043;-83
2023/10/02 01:33:35;;;;;;;28.27;9.60;;;;;;;;;;5035900;28;20037;-83
2023/10/02 01:35:57;;;;;;;28.95;9.98;;;;;;;;;;5043589;28;20105;-82
2023/10/02 01:38:31;;;;;;;26.27;10.30;;;;;;;;;;5042588;28;20033;-83
2023/10/02 01:41:04;;;;;;;26.45;10.07;;;;;;;;;;5040935;28;20051;-82
2023/10/02 01:43:42;;;;;;;;;;;;;;;;;;5047531;28;20157;-80
2023/10/02 01:46:10;;;;;;;23.83;10.20;;;;;;;;;;5047726;28;20392;-82
2023/10/02 01:48:37;;;;;;;25.52;9.07;;;;;;;;;;5042460;28;20029;-82
2023/10/02 01:51:21;;;;;;;26.17;10.23;;;;;;;;;;5040058;28;20498;-83
2023/10/02 01:53:54;;;;;;;27.42;9.63;;;;;;;;;;5049334;28;20025;-83
2023/10/02 01:56:21;;;;;;;29.30;10.70;;;;;;;;;;5027456;28;20443;-83
2023/10/02 01:58:50;;;;;;;25.85;10.10;;;;;;;;;;5039241;28;20446;-83
2023/10/02 02:01:16;;;;;;;24.85;9.73;;;;;;;;;;5047410;28;20032;-82
2023/10/02 02:03:48;;;;;;;26.10;10.55;;;;;;;;;;5046172;28;20033;-83
2023/10/02 02:06:22;;;;;;;26.02;10.27;;;;;;;;;;5039401;28;20125;-83
2023/10/02 02:08:52;;;;;;;26.63;10.25;;;;;;;;;;5046214;28;20116;-82
2023/10/02 02:11:23;;;;;;;25.30;10.05;;;;;;;;;;5027978;28;20030;-83
2023/10/02 02:13:58;;;;;;;27.42;9.90;;;;;;;;;;5038830;28;20036;-81
2023/10/02 02:16:30;;;;;;;26.75;10.35;;;;;;;;;;5041223;28;20037;-82
2023/10/02 02:18:58;;;;;;;28.38;10.10;;;;;;;;;;5049702;28;20028;-83
2023/10/02 02:21:24;;;;;;;29.15;10.50;;;;;;;;;;5043342;28;20037;-82
2023/10/02 02:24:11;;;;;;;28.10;10.30;;;;;;;;;;5037984;28;20032;-82
2023/10/02 02:26:39;;;;;;;31.13;10.35;;;;;;;;;;5052239;28;20431;-82
2023/10/02 02:29:05;;;;;;;33.53;10.82;;;;;;;;;;5047176;28;20037;-83
2023/10/02 02:31:32;;;;;;;27.02;10.68;;;;;;;;;;5038481;28;20040;-83
2023/10/02 02:34:04;;;;;;;27.25;10.57;;;;;;;;;;5043728;28;20479;-83
2023/10/02 02:36:41;;;;;;;27.98;10.48;;;;;;;;;;5049563;28;20025;-83
2023/10/02 02:39:18;;;;;;;28.17;10.48;;;;;;;;;;5041517;28;20457;-83
2023/10/02 02:42:12;;;;;;;29.67;10.63;;;;;;;;;;5044625;28;20123;-82
2023/10/02 02:44:47;;;;;;;28.02;10.77;;;;;;;;;;5047976;28;20033;-82
2023/10/02 02:47:15;;;;;;;27.65;10.52;;;;;;;;;;5041119;28;20071;-83
2023/10/02 02:49:48;;;;;;;26.58;10.43;;;;;;;;;;5039089;28;20044;-83
2023/10/02 02:52:34;;;;;;;29.85;11.20;;;;;;;;;;5043056;28;20029;-83
2023/10/02 02:55:12;;;;;;;27.52;10.32;;;;;;;;;;5043138;28;20057;-83
2023/10/02 02:57:45;;;;;;;31.80;11.13;;;;;;;;;;5035599;28;20120;-83
2023/10/02 03:00:29;;;;;;;26.50;10.25;;;;;;;;;;5051496;28;20037;-83
2023/10/02 03:02:57;;;;;;;28.30;10.43;;;;;;;;;;5041566;28;20041;-82
2023/10/02 03:05:37;;;;;;;26.83;10.20;;;;;;;;;;5037845;28;20553;-83
2023/10/02 03:08:08;;;;;;;27.00;10.82;;;;;;;;;;5052298;28;20041;-83
2023/10/02 03:10:37;;;;;;;29.10;10.50;;;;;;;;;;5046801;28;20029;-80
2023/10/02 03:13:15;;;;;;;30.42;11.13;;;;;;;;;;5040839;28;20030;-83
2023/10/02 03:15:48;;;;;;;28.67;11.25;;;;;;;;;;5046350;28;20127;-83
2023/10/02 03:18:30;;;;;;;26.85;10.68;;;;;;;;;;5043850;28;20040;-83
2023/10/02 03:21:14;;;;;;;28.23;11.18;;;;;;;;;;5039011;28;20039;-83
2023/10/02 03:23:42;;;;;;;30.65;11.45;;;;;;;;;;5043956;28;20379;-83
2023/10/02 03:29:03;;;;;;;30.77;11.38;;;;;;;;;;5042067;28;20080;-83
2023/10/02 03:31:51;;;;;;;28.45;10.73;;;;;;;;;;5037457;28;20045;-83
2023/10/02 03:34:27;;;;;;;33.38;11.50;;;;;;;;;;5049135;28;20407;-83
2023/10/02 03:36:59;;;;;;;28.90;11.18;;;;;;;;;;5042612;28;20043;-82
2023/10/02 03:42:14;;;;;;;31.63;11.68;;;;;;;;;;5049285;28;20040;-82
2023/10/02 03:44:45;;;;;;;29.40;12.07;;;;;;;;;;5044648;28;20017;-83
2023/10/02 03:47:14;;;;;;;31.05;11.80;;;;;;;;;;5035668;28;20612;-82
2023/10/02 03:49:42;;;;;;;32.85;11.05;;;;;;;;;;5050771;28;20069;-83
2023/10/02 03:52:08;;;;;;;30.58;11.63;;;;;;;;;;5045450;28;20514;-83
2023/10/02 03:54:34;;;;;;;29.33;11.63;;;;;;;;;;5040410;28;20040;-81
2023/10/02 03:57:01;;;;;;;32.80;12.18;;;;;;;;;;5040936;28;20056;-82
2023/10/02 03:59:31;;;;;;;34.20;12.32;;;;;;;;;;5048056;28;20123;-82
2023/10/02 04:02:24;;;;;;;31.25;11.27;;;;;;;;;;5038529;28;20029;-82
2023/10/02 04:04:46;;;;;;;31.23;11.18;;;;;;;;;;5039070;28;20028;-82
2023/10/02 04:07:12;;;;;;;30.95;11.48;;;;;;;;;;5049790;28;20125;-82
2023/10/02 04:09:38;;;;;;;32.03;11.50;;;;;;;;;;5042997;28;20086;-82
2023/10/02 04:12:07;;;;;;;30.80;11.27;;;;;;;;;;5038469;28;20037;-81
2023/10/02 04:14:33;;;;;;;37.55;11.85;;;;;;;;;;5045232;28;20109;-82
2023/10/02 04:19:51;;;;;;;31.83;11.20;;;;;;;;;;5040343;28;20049;-82
2023/10/02 04:22:27;;;;;;;32.20;11.75;;;;;;;;;;5040524;28;20040;-83
2023/10/02 04:24:54;;;;;;;28.50;11.40;;;;;;;;;;5047444;28;20029;-83
2023/10/02 04:27:24;;;;;;;28.48;11.35;;;;;;;;;;5042326;28;20060;-82
2023/10/02 04:30:20;;;;;;;31.92;11.65;;;;;;;;;;5038600;28;20043;-82
2023/10/02 04:32:51;;;;;;;32.17;11.27;;;;;;;;;;5046268;28;20507;-83
2023/10/02 04:35:57;;;;;;;34.33;11.88;;;;;;;;;;5042614;28;20034;-83
2023/10/02 04:38:14;;;;;;;31.98;11.90;;;;;;;;;;5034331;28;20211;-82
2023/10/02 04:40:49;;;;;;;30.42;11.65;;;;;;;;;;5049627;28;20510;-83
2023/10/02 04:43:28;;;;;;;34.67;11.98;;;;;;;;;;5043653;28;20116;-83
2023/10/02 04:48:59;;;;;;;32.97;11.25;;;;;;;;;;5031709;28;20037;-82
2023/10/02 04:51:35;;;;;;;30.30;11.55;;;;;;;;;;5043117;28;20037;-82
2023/10/02 04:54:05;;;;;;;36.15;12.48;;;;;;;;;;5034325;28;20049;-83
2023/10/02 04:56:30;;;;;;;34.97;12.63;;;;;;;;;;5050101;28;20043;-82
2023/10/02 04:59:02;;;;;;;30.77;11.77;;;;;;;;;;5045827;28;20033;-83
2023/10/02 05:01:41;;;;;;;29.17;11.45;;;;;;;;;;5037921;28;20049;-82
2023/10/02 05:04:07;;;;;;;32.53;11.48;;;;;;;;;;5043206;28;20024;-83
2023/10/02 05:06:44;;;;;;;35.78;12.20;;;;;;;;;;5044962;28;20056;-83
2023/10/02 05:11:53;;;;;;;33.15;12.32;;;;;;;;;;5054621;28;20039;-83
2023/10/02 05:14:47;;;;;;;30.42;11.70;;;;;;;;;;5049472;28;20036;-83
2023/10/02 05:17:38;;;;;;;38.90;12.98;;;;;;;;;;5043966;28;20076;-82
2023/10/02 05:20:04;;;;;;;32.60;11.75;;;;;;;;;;5040472;28;20041;-80
2023/10/02 05:22:31;;;;;;;35.80;12.02;;;;;;;;;;5051618;28;20046;-82
2023/10/02 05:24:58;;;;;;;33.13;11.63;;;;;;;;;;5046361;28;20033;-83
2023/10/02 05:27:30;;;;;;;29.10;11.45;;;;;;;;;;5040414;28;20107;-83
2023/10/02 05:30:05;;;;;;;32.15;11.40;;;;;;;;;;5050113;28;20098;-83
2023/10/02 05:32:35;;;;;;;30.55;11.45;;;;;;;;;;5047267;28;20037;-83
2023/10/02 05:37:43;;;;;;;33.55;12.25;;;;;;;;;;5047884;28;20037;-82
2023/10/02 05:50:52;;;;;;;37.78;12.27;;;;;;;;;;5042914;28;20037;-83
2023/10/02 05:53:20;;;;;;;34.83;11.85;;;;;;;;;;5040416;28;20044;-83
2023/10/02 05:58:49;;;;;;;;;;;;;;;;;;4983598;28;20053;-82
2023/10/02 06:01:18;;;;;;;29.67;11.60;;;;;;;;;;4976336;28;20013;-83
2023/10/02 06:03:49;;;;;;;31.48;11.75;;;;;;;;;;5020298;28;20081;-82
2023/10/02 06:06:24;;;;;;;31.67;11.77;;;;;;;;;;5043381;28;20038;-81
2023/10/02 06:12:02;;;;;;;32.03;11.40;;;;;;;;;;5019294;28;20045;-83
2023/10/02 06:14:28;;;;;;;29.92;10.65;;;;;;;;;;5044810;28;20502;-83
2023/10/02 06:16:54;;;;;;;31.30;11.63;;;;;;;;;;5040960;28;20563;-83
2023/10/02 06:19:19;;;;;;;34.35;11.88;;;;;;;;;;5044841;28;20040;-83
2023/10/02 06:21:47;;;;;;;28.77;11.07;;;;;;;;;;5047736;28;20044;-82
2023/10/02 06:24:19;;;;;;;35.20;12.32;;;;;;;;;;5042741;28;20080;-82
2023/10/02 06:26:57;;;;;;;32.53;12.13;;;;;;;;;;5040542;28;20037;-82
2023/10/02 06:29:24;;;;;;;31.05;11.63;;;;;;;;;;5049910;28;20037;-82
2023/10/02 06:31:58;;;;;;;31.65;11.75;;;;;;;;;;5043752;28;20093;-82
2023/10/02 06:34:36;;;;;;;;;;;;;;;;;;5037445;28;20076;-80
2023/10/02 06:37:13;;;;;;;31.38;11.48;;;;;;;;;;5066132;28;19921;-82
2023/10/02 06:39:45;;;;;;;27.00;10.80;;;;;;;;;;5041036;28;20049;-83
2023/10/02 06:42:19;;;;;;;31.30;12.00;;;;;;;;;;5038669;28;20034;-83
2023/10/02 06:44:53;;;;;;;35.83;12.18;;;;;;;;;;5047085;28;20549;-82
2023/10/02 06:47:23;;;;;;;34.55;11.85;;;;;;;;;;5046667;28;20061;-82
2023/10/02 06:49:51;;;;;;;32.53;11.20;;;;;;;;;;5041324;28;20559;-82
2023/10/02 06:52:20;;;;;;;29.95;11.10;;;;;;;;;;5043295;28;20560;-83
2023/10/02 06:54:56;;;;;;;30.88;12.02;;;;;;;;;;5049427;28;20036;-82
2023/10/02 06:57:26;;;;;;;31.02;11.32;;;;;;;;;;5042824;28;20037;-83
2023/10/02 06:59:52;;;;;;;31.05;11.10;;;;;;;;;;5036104;28;20037;-82
2023/10/02 07:02:19;;;;;;;34.38;11.52;;;;;;;;;;5049487;28;20498;-81
2023/10/02 07:04:47;;;;;;;32.90;11.50;;;;;;;;;;5045830;28;20120;-82
2023/10/02 07:07:15;;;;;;;27.45;11.13;;;;;;;;;;5036486;28;20037;-82
2023/10/02 07:09:40;;;;;;;33.72;12.05;;;;;;;;;;5046970;28;20045;-82
2023/10/02 07:12:08;;;;;;;31.23;11.60;;;;;;;;;;5044746;28;20103;-83
2023/10/02 07:14:36;;;;;;;30.42;11.65;;;;;;;;;;5040163;28;20136;-82
2023/10/02 07:17:11;;;;;;;36.78;11.70;;;;;;;;;;5042751;28;20680;-83
2023/10/02 07:19:38;;;;;;;28.52;10.63;;;;;;;;;;5025488;28;20509;-83
2023/10/02 07:22:03;;;;;;;29.33;11.55;;;;;;;;;;5022861;28;20109;-83
2023/10/02 07:24:29;;;;;;;31.52;10.95;;;;;;;;;;5034252;28;20125;-82
2023/10/02 07:26:56;;;;;;;29.83;11.43;;;;;;;;;;5048532;28;20033;-81
2023/10/02 07:29:37;;;;;;;28.13;10.70;;;;;;;;;;5045552;28;20037;-83
2023/10/02 07:32:04;;;;;;;27.88;10.73;;;;;;;;;;5036070;28;20677;-82
2023/10/02 07:34:29;;;;;;;29.88;11.23;;;;;;;;;;5041624;28;20029;-82
2023/10/02 07:36:55;;;;;;;31.63;11.15;;;;;;;;;;5047054;28;20041;-83
2023/10/02 07:39:35;;;;;;;27.10;11.40;;;;;;;;;;5041417;28;20037;-83
2023/10/02 07:42:01;;;;;;;28.75;11.48;;;;;;;;;;5041727;28;20135;-83
2023/10/02 07:44:39;;;;;;;29.75;11.40;;;;;;;;;;5048438;28;20033;-83
2023/10/02 07:47:39;;;;;;;29.25;11.52;;;;;;;;;;5040462;28;20083;-83
2023/10/02 07:49:59;;;;;;;29.83;11.88;;;;;;;;;;5034155;28;20079;-82
2023/10/02 07:52:29;;;;;;;28.65;11.48;;;;;;;;;;5048540;28;20112;-82
2023/10/02 07:54:59;;;;;;;28.75;10.90;;;;;;;;;;5042764;28;20033;-83
2023/10/02 07:57:32;;;;;;;27.15;11.38;;;;;;;;;;5020146;28;20029;-83
2023/10/02 08:00:05;;;;;;;30.63;11.55;;;;;;;;;;5046454;28;20136;-83
2023/10/02 08:02:33;;;;;;;30.90;12.45;;;;;;;;;;5045516;28;20044;-83
2023/10/02 08:05:03;;;;;;;26.35;11.05;;;;;;;;;;5037596;28;20484;-83
2023/10/02 08:07:29;;;;;;;31.27;11.75;;;;;;;;;;5042278;28;20041;-83
2023/10/02 08:09:57;;;;;;;32.65;12.02;;;;;;;;;;5046818;28;20083;-83
2023/10/02 08:13:08;;;;;;;28.60;11.52;;;;;;;;;;5041424;28;20037;-82
2023/10/02 08:18:14;;;;;;;30.05;11.52;;;;;;;;;;5033973;28;20064;-82
2023/10/02 08:20:40;;;;;;;28.25;11.77;;;;;;;;;;5038551;28;20048;-83
2023/10/02 08:23:21;;;;;;;30.13;11.65;;;;;;;;;;5036206;28;20037;-83
2023/10/02 08:26:02;;;;;;;34.65;11.95;;;;;;;;;;5049813;28;20033;-83
2023/10/02 08:28:34;;;;;;;29.45;12.13;;;;;;;;;;5040431;28;20096;-83
2023/10/02 08:31:01;;;;;;;28.95;11.77;;;;;;;;;;5036209;28;20037;-83
2023/10/02 08:33:30;;;;;;;27.42;11.55;;;;;;;;;;5045872;28;20033;-82
2023/10/02 08:36:01;;;;;;;31.20;11.48;;;;;;;;;;5045247;28;20033;-83
2023/10/02 08:38:27;;;;;;;31.00;12.13;;;;;;;;;;5036925;28;20044;-83
2023/10/02 08:41:03;;;;;;;30.17;11.98;;;;;;;;;;5040941;28;20037;-83
2023/10/02 08:43:32;;;;;;;27.27;11.40;;;;;;;;;;5046818;28;20547;-83
2023/10/02 08:45:59;;;;;;;30.00;12.15;;;;;;;;;;5039403;28;20029;-82
2023/10/02 08:48:25;;;;;;;32.55;11.82;;;;;;;;;;5035185;28;20037;-83
2023/10/02 08:50:57;;;;;;;27.50;11.30;;;;;;;;;;5047842;28;20036;-83
2023/10/02 08:53:23;;;;;;;26.90;11.70;;;;;;;;;;5040557;28;20052;-83
2023/10/02 08:56:00;;;;;;;29.10;12.88;;;;;;;;;;5037573;28;20045;-84
2023/10/02 08:58:27;;;;;;;30.00;11.85;;;;;;;;;;5046989;28;20040;-84
2023/10/02 09:04:21;;;;;;;25.92;12.00;;;;;;;;;;5028770;28;20495;-84
2023/10/02 09:06:49;;;;;;;27.42;11.57;;;;;;;;;;5047800;28;20036;-84
2023/10/02 09:09:23;;;;;;;29.58;12.13;;;;;;;;;;5045409;28;20037;-84
2023/10/02 09:11:53;;;;;;;30.63;12.32;;;;;;;;;;5033340;28;20088;-83
2023/10/02 09:16:47;;;;;;;26.30;10.80;;;;;;;;;;5046180;28;20566;-84
2023/10/02 09:19:30;;;;;;;27.75;11.48;;;;;;;;;;5040593;28;20041;-83
2023/10/02 09:22:06;;;;;;;31.52;12.02;;;;;;;;;;5034671;28;20040;-83
2023/10/02 09:24:36;;;;;;;25.48;11.43;;;;;;;;;;5047782;28;20084;-84
2023/10/02 09:27:26;;;;;;;27.67;11.80;;;;;;;;;;5042201;28;20037;-82
2023/10/02 09:32:52;;;;;;;29.63;12.10;;;;;;;;;;5047822;28;20029;-83
2023/10/02 09:35:29;;;;;;;26.13;11.50;;;;;;;;;;5042572;28;20510;-82
2023/10/02 09:37:57;;;;;;;24.60;11.20;;;;;;;;;;5034975;28;20033;-84
2023/10/02 09:40:54;;;;;;;28.70;12.00;;;;;;;;;;5045312;28;20033;-84
2023/10/02 09:43:41;;;;;;;30.95;12.55;;;;;;;;;;5037707;28;20121;-83
2023/10/02 09:46:21;;;;;;;28.17;12.07;;;;;;;;;;5035625;28;20044;-84
2023/10/02 09:49:06;;;;;;;26.55;11.60;;;;;;;;;;5045422;28;20130;-84
2023/10/02 09:52:09;;;;;;;27.45;11.60;;;;;;;;;;5038629;28;20083;-85
2023/10/02 09:54:41;;;;;;;30.38;11.85;;;;;;;;;;5033614;28;20403;-84
2023/10/02 09:57:25;;;;;;;26.48;11.10;;;;;;;;;;5031061;28;20040;-83
2023/10/02 09:59:55;;;;;;;27.77;11.82;;;;;;;;;;5055666;28;20124;-84
2023/10/02 10:10:52;;;;;;;24.63;11.18;;;;;;;;;;5040249;28;20491;-84
2023/10/02 10:13:37;;;;;;;26.35;11.70;;;;;;;;;;5060763;28;20037;-84
2023/10/02 10:16:21;;;;;;;26.65;12.18;;;;;;;;;;5046076;28;20101;-83
2023/10/02 10:19:26;;;;;;;29.08;12.70;;;;;;;;;;5040216;28;20035;-83
2023/10/02 10:22:04;;;;;;;26.70;11.85;;;;;;;;;;5047057;28;20041;-82
2023/10/02 10:27:43;;;;;;;28.63;12.57;;;;;;;;;;5039219;28;20159;-82
2023/10/02 10:35:48;;;;;;;24.92;11.63;;;;;;;;;;5040338;28;20503;-83
2023/10/02 10:38:26;;;;;;;28.33;12.25;;;;;;;;;;5046861;28;20538;-84
2023/10/02 10:41:00;;;;;;;27.67;12.85;;;;;;;;;;5046419;28;20108;-84
2023/10/02 10:43:52;;;;;;;28.60;12.63;;;;;;;;;;5039091;28;20475;-82
2023/10/02 10:46:17;;;;;;;28.27;11.98;;;;;;;;;;5038787;28;20127;-84
2023/10/02 10:48:48;;;;;;;27.45;11.95;;;;;;;;;;5048784;28;20110;-84
2023/10/02 10:51:20;;;;;;;28.55;12.63;;;;;;;;;;5042095;28;20041;-84
2023/10/02 10:53:52;;;;;;;30.05;12.00;;;;;;;;;;5039011;28;20045;-84
2023/10/02 10:56:19;;;;;;;29.75;12.20;;;;;;;;;;5049972;28;20033;-84
2023/10/02 10:58:51;;;;;;;28.35;12.13;;;;;;;;;;5044416;28;20120;-85
2023/10/02 11:01:17;;;;;;;28.67;12.37;;;;;;;;;;5036023;28;20183;-85
2023/10/02 11:03:43;;;;;;;26.55;12.10;;;;;;;;;;5049351;28;20370;-84
2023/10/02 11:06:10;;;;;;;27.13;11.50;;;;;;;;;;5046672;28;20045;-85
2023/10/02 11:08:40;;;;;;;27.27;12.25;;;;;;;;;;5040380;28;20037;-84
2023/10/02 11:11:19;;;;;;;30.60;12.32;;;;;;;;;;5040659;28;20067;-84
2023/10/02 11:13:58;;;;;;;26.25;12.00;;;;;;;;;;5047318;28;20044;-84
2023/10/02 11:16:34;;;;;;;28.65;12.70;;;;;;;;;;5040817;28;20045;-83
2023/10/02 11:19:25;;;;;;;29.63;13.45;;;;;;;;;;5038840;28;20131;-83
2023/10/02 11:22:13;;;;;;;29.60;12.77;;;;;;;;;;5035053;28;20038;-84
2023/10/02 11:24:38;;;;;;;27.90;12.10;;;;;;;;;;5040702;28;20124;-84
2023/10/02 11:27:07;;;;;;;29.17;12.90;;;;;;;;;;5039459;28;20092;-84
2023/10/02 11:29:40;;;;;;;33.35;13.10;;;;;;;;;;5042085;28;20032;-83
2023/10/02 11:32:23;;;;;;;32.08;12.80;;;;;;;;;;5042296;28;20042;-85
2023/10/02 11:34:51;;;;;;;29.58;12.68;;;;;;;;;;5037480;28;20438;-85
2023/10/02 11:37:18;;;;;;;30.17;13.13;;;;;;;;;;5016579;28;20034;-84
2023/10/02 11:39:50;;;;;;;25.92;11.38;;;;;;;;;;5045695;28;20025;-84
2023/10/02 11:42:17;;;;;;;28.23;12.57;;;;;;;;;;5036640;28;20041;-84
2023/10/02 11:44:43;;;;;;;26.42;12.48;;;;;;;;;;5044207;28;20052;-84
2023/10/02 11:47:12;;;;;;;28.15;12.23;;;;;;;;;;5047774;28;20033;-83
2023/10/02 11:49:38;;;;;;;29.70;12.30;;;;;;;;;;5041200;28;20037;-84
2023/10/02 11:52:04;;;;;;;29.27;12.57;;;;;;;;;;5038898;28;20043;-85
2023/10/02 11:54:36;;;;;;;27.15;12.13;;;;;;;;;;5048980;28;20087;-85
2023/10/02 11:57:08;;;;;;;29.60;12.73;;;;;;;;;;5040567;28;20037;-85
2023/10/02 11:59:39;;;;;;;28.20;12.52;;;;;;;;;;5035370;28;20040;-83
2023/10/02 12:02:04;;;;;;;29.13;12.50;;;;;;;;;;5045223;28;20079;-83
2023/10/02 12:04:31;;;;;;;27.02;12.10;;;;;;;;;;5045324;28;20069;-84
2023/10/02 12:06:57;;;;;;;32.00;13.25;;;;;;;;;;5038208;28;20041;-84
2023/10/02 12:09:23;;;;;;;27.50;12.52;;;;;;;;;;5041408;28;20480;-84
2023/10/02 12:11:48;;;;;;;27.42;12.48;;;;;;;;;;5047189;28;20039;-84
2023/10/02 12:14:14;;;;;;;30.73;13.45;;;;;;;;;;5041599;28;20021;-84
2023/10/02 12:16:40;;;;;;;29.73;13.15;;;;;;;;;;5046993;28;20041;-83
2023/10/02 12:19:08;;;;;;;31.40;13.13;;;;;;;;;;5046526;28;20037;-84
2023/10/02 12:21:34;;;;;;;29.65;12.68;;;;;;;;;;5043605;28;20068;-83
2023/10/02 12:24:00;;;;;;;29.20;12.73;;;;;;;;;;5037801;28;20068;-84
2023/10/02 12:26:28;;;;;;;27.40;12.38;;;;;;;;;;5041971;28;20552;-84
2023/10/02 12:28:54;;;;;;;27.13;12.93;;;;;;;;;;5047233;28;20037;-84
2023/10/02 12:31:19;;;;;;;26.85;12.75;;;;;;;;;;5039724;28;20556;-84
2023/10/02 12:33:47;;;;;;;29.73;13.52;;;;;;;;;;5035620;28;20033;-84
2023/10/02 12:36:22;;;;;;;30.38;13.10;;;;;;;;;;5049135;28;20131;-84
2023/10/02 12:38:50;;;;;;;27.15;12.18;;;;;;;;;;5038445;28;20033;-84
2023/10/02 12:41:17;;;;;;;28.38;12.85;;;;;;;;;;5036601;28;20486;-83
2023/10/02 12:43:44;;;;;;;24.90;12.05;;;;;;;;;;5044829;28;20112;-84
2023/10/02 12:46:14;;;;;;;29.63;12.70;;;;;;;;;;5042985;28;20432;-84
2023/10/02 12:48:46;;;;;;;27.88;12.73;;;;;;;;;;5037512;28;20131;-84
2023/10/02 12:51:13;;;;;;;27.50;11.93;;;;;;;;;;5040161;28;20037;-84
2023/10/02 12:53:39;;;;;;;29.45;13.10;;;;;;;;;;5046599;28;20040;-84
2023/10/02 12:56:05;;;;;;;25.58;12.38;;;;;;;;;;5036687;28;20414;-84
2023/10/02 12:58:33;;;;;;;27.10;12.23;;;;;;;;;;5031818;28;20045;-84
2023/10/02 13:01:00;;;;;;;26.90;12.02;;;;;;;;;;5048051;28;20029;-84
2023/10/02 13:03:28;;;;;;;28.63;12.52;;;;;;;;;;5043453;28;20040;-84
2023/10/02 13:05:57;;;;;;;26.60;12.07;;;;;;;;;;5034912;28;20041;-84
2023/10/02 13:08:24;;;;;;;27.88;12.63;;;;;;;;;;5042038;28;20483;-84
2023/10/02 13:10:49;;;;;;;26.58;12.38;;;;;;;;;;5045093;28;20783;-84
2023/10/02 13:13:15;;;;;;;29.20;12.50;;;;;;;;;;5038269;28;20040;-85
2023/10/02 13:15:40;;;;;;;26.38;12.55;;;;;;;;;;5038190;28;20372;-84
2023/10/02 13:18:06;;;;;;;27.75;13.05;;;;;;;;;;5048860;28;20037;-84
2023/10/02 13:20:33;;;;;;;30.55;12.40;;;;;;;;;;5040936;28;20499;-82
2023/10/02 13:22:58;;;;;;;29.70;13.20;;;;;;;;;;5035476;28;20037;-83
2023/10/02 13:25:26;;;;;;;29.52;12.68;;;;;;;;;;5042349;28;20051;-83
2023/10/02 13:27:52;;;;;;;30.33;13.40;;;;;;;;;;5045687;28;20036;-83
2023/10/02 13:30:19;;;;;;;27.80;12.60;;;;;;;;;;5035357;28;20038;-83
2023/10/02 13:32:45;;;;;;;29.33;13.23;;;;;;;;;;5037371;28;20055;-83
2023/10/02 13:35:10;;;;;;;26.98;12.40;;;;;;;;;;5047425;28;20505;-85
2023/10/02 13:37:38;;;;;;;26.90;11.73;;;;;;;;;;5045235;28;20041;-86
2023/10/02 13:40:18;;;;;;;26.77;12.20;;;;;;;;;;5037344;28;20048;-85
2023/10/02 13:42:46;;;;;;;28.05;12.63;;;;;;;;;;5031879;28;20116;-86
2023/10/02 13:45:12;;;;;;;28.08;12.68;;;;;;;;;;5027489;28;20021;-85
2023/10/02 13:47:37;;;;;;;29.65;11.60;;;;;;;;;;5021397;28;20456;-85
2023/10/02 13:50:03;;;;;;;28.48;12.70;;;;;;;;;;5041647;28;20075;-83
2023/10/02 13:52:28;;;;;;;26.08;11.88;;;;;;;;;;5048766;28;20044;-84
2023/10/02 13:54:55;;;;;;;28.58;12.50;;;;;;;;;;5043871;28;20036;-85
2023/10/02 13:57:21;;;;;;;30.50;12.52;;;;;;;;;;5039226;28;20042;-82
2023/10/02 13:59:46;;;;;;;27.52;11.85;;;;;;;;;;5049311;28;20459;-85
2023/10/02 14:02:12;;;;;;;27.55;12.02;;;;;;;;;;5045459;28;20033;-85
2023/10/02 14:04:39;;;;;;;29.02;11.82;;;;;;;;;;5040454;28;20029;-83
2023/10/02 14:07:06;;;;;;;32.85;12.60;;;;;;;;;;5049380;28;20087;-84
2023/10/02 14:09:34;;;;;;;23.92;12.15;;;;;;;;;;5048544;28;20040;-85
2023/10/02 14:12:00;;;;;;;31.88;12.43;;;;;;;;;;5040394;28;20107;-85
2023/10/02 14:14:26;;;;;;;28.45;12.60;;;;;;;;;;5040496;28;20021;-84
2023/10/02 14:16:52;;;;;;;26.25;12.13;;;;;;;;;;5044156;28;20065;-84
2023/10/02 14:19:18;;;;;;;25.05;11.60;;;;;;;;;;5043697;28;20060;-84
2023/10/02 14:21:45;;;;;;;27.83;11.90;;;;;;;;;;5038616;28;20049;-83
2023/10/02 14:24:10;;;;;;;25.38;12.50;;;;;;;;;;5048384;28;20029;-83
2023/10/02 14:26:36;;;;;;;30.35;12.30;;;;;;;;;;5047339;28;20045;-84
2023/10/02 14:29:02;;;;;;;25.63;12.07;;;;;;;;;;5041677;28;20038;-84
2023/10/02 14:31:31;;;;;;;30.10;12.77;;;;;;;;;;5043262;28;20044;-84
2023/10/02 14:33:57;;;;;;;26.67;11.98;;;;;;;;;;5050829;28;20450;-83
2023/10/02 14:36:22;;;;;;;27.80;12.23;;;;;;;;;;5043326;28;20057;-84
2023/10/02 14:38:48;;;;;;;24.17;11.85;;;;;;;;;;5036215;28;20143;-85
2023/10/02 14:41:14;;;;;;;28.55;12.00;;;;;;;;;;5050379;28;20025;-83
2023/10/02 14:43:39;;;;;;;25.73;12.15;;;;;;;;;;5045109;28;20490;-84
2023/10/02 14:46:05;;;;;;;28.92;11.55;;;;;;;;;;5041106;28;20045;-84
2023/10/02 14:48:32;;;;;;;28.20;12.00;;;;;;;;;;5044701;28;20090;-84
2023/10/02 14:50:58;;;;;;;25.60;11.65;;;;;;;;;;5047477;28;20037;-83
2023/10/02 14:53:28;;;;;;;26.10;11.32;;;;;;;;;;5038674;28;20073;-83
2023/10/02 14:55:55;;;;;;;25.75;11.60;;;;;;;;;;5036977;28;20064;-84
2023/10/02 14:58:21;;;;;;;28.08;12.10;;;;;;;;;;5054458;28;20047;-82
2023/10/02 15:00:48;;;;;;;26.98;11.75;;;;;;;;;;5042106;28;20061;-84
2023/10/02 15:03:14;;;;;;;28.95;12.00;;;;;;;;;;5038059;28;20113;-84
2023/10/02 15:05:40;;;;;;;30.00;12.57;;;;;;;;;;5046773;28;20037;-84
2023/10/02 15:08:10;;;;;;;27.77;12.27;;;;;;;;;;5047256;28;20392;-84
2023/10/02 15:10:36;;;;;;;25.85;12.05;;;;;;;;;;5040192;28;20037;-84
2023/10/02 15:13:01;;;;;;;24.20;11.23;;;;;;;;;;5041998;28;20029;-84
2023/10/02 15:15:28;;;;;;;27.73;12.75;;;;;;;;;;5048100;28;20132;-85
2023/10/02 15:17:54;;;;;;;26.63;11.60;;;;;;;;;;5043531;28;20043;-85
2023/10/02 15:20:23;;;;;;;27.77;11.70;;;;;;;;;;5035881;28;20491;-83
2023/10/02 15:22:51;;;;;;;28.38;11.32;;;;;;;;;;5045623;28;20526;-82
2023/10/02 15:25:17;;;;;;;28.13;11.75;;;;;;;;;;5044128;28;20040;-83
2023/10/02 15:27:45;;;;;;;25.52;10.95;;;;;;;;;;5039053;28;20136;-84
2023/10/02 15:30:12;;;;;;;25.48;11.75;;;;;;;;;;5043598;28;20072;-84
2023/10/02 15:32:41;;;;;;;24.25;11.38;;;;;;;;;;5045486;28;20038;-83
2023/10/02 15:35:11;;;;;;;24.65;11.23;;;;;;;;;;5041105;28;20070;-83
2023/10/02 15:37:38;;;;;;;25.75;11.75;;;;;;;;;;5039946;28;20033;-83
2023/10/02 15:40:07;;;;;;;24.02;12.00;;;;;;;;;;5042770;28;20044;-84
2023/10/02 15:42:40;;;;;;;23.23;11.18;;;;;;;;;;5043424;28;20037;-83
2023/10/02 15:45:15;;;;;;;;;;;;;;;;;;5036278;28;20033;-84